EDSB Airport Information

Runway Information
Runway 03 Length 9787 ft width 148 ft
Elevation 405 ft Threshold 830 ft Heading 32
Runway 21 Length 9787 ft Width 148 ft
Elevation 404 ft Threshold 830 ft Heading 212
Airport Frequencies
Type AAS Name REIMS INFO Frequency 124.1 MHZ
Type APP Name STRASSBOUR Frequency 119.45 MHZ
Type ATIS Name BADEN ATIS Frequency 121.275 MHZ
Type GND Name BADEN GND Frequency 121.825 MHZ
Type INFO Name LANGEN INF Frequency 128.95 MHZ
Type TWR Name BADEN TWR Frequency 134.1 MHZ
Airport Navaids
Type NDB Name Karlsruhe Baden Baden Frequency 431 KHZ
Type DME Name Karlsruhe Baden Baden Frequency 115800 KHZ
Airport Weather Information & NOTAM
ADDS - METARS form results

(2246 UTC 15 November 2018)
Data provider http://aviationweather.gov/metar/data/
 
METAR text: EDSB 152220Z 15004KT 110V170 8000 OVC003 05/05 Q1027
Conditions at: EDSB (KARLSRUHE/BADEN , DE) observed 2220 UTC 15 November 2018
Temperature: 5.0°C (41°F)
Dewpoint: 5.0°C (41°F) [RH = 100%]
Pressure (altimeter): 30.32 inches Hg (1027.0 mb)
Winds: from the SSE (150 degrees) at 5 MPH (4 knots; 2.1 m/s)
Visibility: 5 miles ( 8 km)
Ceiling: 300 feet AGL
Clouds: overcast cloud deck at 300 feet AGL
Weather: no significant weather observed at this time

METAR text: EDSB 152150Z 16003KT 8000 OVC003 05/05 Q1027
Conditions at: EDSB (KARLSRUHE/BADEN , DE) observed 2150 UTC 15 November 2018
Temperature: 5.0°C (41°F)
Dewpoint: 5.0°C (41°F) [RH = 100%]
Pressure (altimeter): 30.32 inches Hg (1027.0 mb)
Winds: from the SSE (160 degrees) at 3 MPH (3 knots; 1.5 m/s)
Visibility: 5 miles ( 8 km)
Ceiling: 300 feet AGL
Clouds: overcast cloud deck at 300 feet AGL
Weather: no significant weather observed at this time

Forecast for: AMD
Text: TAF AMD EDSB 152207Z 1522/1618 VRB03KT 6000 BKN005
Forecast period: 2200 UTC 15 November 2018 to 0900 UTC 16 November 2018
Forecast type: FROM: standard forecast or significant change
Winds: variable direction winds at 3 MPH (3 knots; 1.5 m/s)
Visibility: 4 miles (6 km)
Ceiling: 500 feet AGL
Clouds: broken clouds at 500 feet AGL
Weather: no significant weather forecast for this period
Text: TEMPO 1522/1609 0400 FG VV001
Forecast period: 2200 UTC 15 November 2018 to 0900 UTC 16 November 2018
Forecast type: TEMPORARY: The following changes expected for less than half the time period
Visibility: 0.25 miles (0.40 km)
Ceiling: indefinite ceiling with vertical visibility of 100 feet AGL
Clouds: obscured sky
Weather: FG  (fog)
Text: BECMG 1609/1612 02009KT SCT015
Forecast period: 0900 to 1800 UTC 16 November 2018
Forecast type: BECOMING: Conditions expected to become as follows by 1200 UTC 16 November 2018
Winds: from the NNE (20 degrees) at 10 MPH (9 knots; 4.6 m/s)
Visibility: 4 miles (6 km)
Ceiling: at least 12,000 feet AGL
Clouds: scattered clouds at 1500 feet AGL
Weather: no significant weather forecast for this period